Time;durP1;ratioP1;P1;durP2;ratioP2;P2;SDS_P1;SDS_P2;PMS_P1;PMS_P2;Temp;Humidity;BMP_temperature;BMP_pressure;BME280_temperature;BME280_humidity;BME280_pressure;Samples;Min_cycle;Max_cycle;Signal;HPM_P1;HPM_P2
2022/12/01 00:01:58;;;;;;;;;;;;;;;26.09;25.66;101439.84;4978139;28;1106;-23
2022/12/01 00:04:23;;;;;;;;;;;;;;;25.79;26.16;101448.25;4978305;28;1150;-25
2022/12/01 00:06:48;;;;;;;;;;;;;;;25.98;26.11;101446.38;4977244;28;1154;-27
2022/12/01 00:11:57;;;;;;;;;;;;;;;25.90;26.35;101447.16;4977929;28;1265;-24
2022/12/01 00:14:23;;;;;;;;;;;;;;;25.92;26.43;101442.44;4978028;28;1208;-24
2022/12/01 00:16:48;;;;;;;;;;;;;;;26.03;25.86;101440.50;4977453;28;1962;-24
2022/12/01 00:19:13;;;;;;;;;;;;;;;26.17;25.94;101431.00;4978200;28;1122;-24
2022/12/01 00:21:39;;;;;;;;;;;;;;;25.70;26.61;101429.50;4978029;28;1256;-25
2022/12/01 00:24:04;;;;;;;;;;;;;;;25.91;26.04;101431.81;4977546;28;1169;-28
2022/12/01 00:26:29;;;;;;;;;;;;;;;25.99;26.01;101436.44;4977754;28;1209;-27
2022/12/01 00:28:55;;;;;;;;;;;;;;;26.01;25.86;101420.94;4977730;28;1233;-25
2022/12/01 00:31:21;;;;;;;;;;;;;;;25.83;26.46;101424.53;4977556;28;1138;-25
2022/12/01 00:33:46;;;;;;;;;;;;;;;25.95;26.18;101427.81;4977773;28;1169;-29
2022/12/01 00:36:11;;;;;;;;;;;;;;;25.92;26.06;101426.28;4977757;28;1253;-25
2022/12/01 00:38:37;;;;;;;;;;;;;;;25.99;26.09;101434.56;4977202;28;1970;-24
2022/12/01 00:41:02;;;;;;;;;;;;;;;25.84;26.39;101434.31;4976966;28;1245;-24
2022/12/01 00:43:27;;;;;;;;;;;;;;;25.90;26.31;101422.91;4977561;28;896;-24
2022/12/01 00:45:53;;;;;;;;;;;;;;;26.12;26.06;101412.59;4977723;28;1162;-24
2022/12/01 00:48:19;;;;;;;;;;;;;;;25.82;26.37;101422.84;4976944;28;1138;-24
2022/12/01 00:50:44;;;;;;;;;;;;;;;25.88;26.11;101416.81;4977707;28;1114;-26
2022/12/01 00:53:09;;;;;;;;;;;;;;;25.88;26.13;101397.97;4959789;28;1241;-27
2022/12/01 00:55:35;;;;;;;;;;;;;;;25.92;26.01;101399.31;4977432;28;881;-29
2022/12/01 00:58:00;;;;;;;;;;;;;;;25.85;26.50;101392.03;4976948;28;1899;-26
2022/12/01 01:00:25;;;;;;;;;;;;;;;25.89;25.90;101393.44;4977684;28;1165;-26
2022/12/01 01:02:50;;;;;;;;;;;;;;;25.95;26.03;101390.09;4977563;28;1170;-27
2022/12/01 01:05:16;;;;;;;;;;;;;;;26.12;26.04;101392.88;4977567;28;1154;-24
2022/12/01 01:07:41;;;;;;;;;;;;;;;25.76;26.60;101393.81;4976423;28;891;-26
2022/12/01 01:10:06;;;;;;;;;;;;;;;25.88;26.04;101384.47;4977597;28;1217;-28
2022/12/01 01:12:31;;;;;;;;;;;;;;;26.27;25.77;101371.53;4977392;28;1176;-24
2022/12/01 01:14:57;;;;;;;;;;;;;;;26.03;25.97;101382.03;4977220;28;1216;-24
2022/12/01 01:17:22;;;;;;;;;;;;;;;25.80;26.01;101384.44;4976867;28;1952;-24
2022/12/01 01:19:47;;;;;;;;;;;;;;;25.97;26.18;101374.59;4976924;28;880;-27
2022/12/01 01:22:13;;;;;;;;;;;;;;;25.95;25.75;101379.31;4977144;28;1154;-28
2022/12/01 01:24:38;;;;;;;;;;;;;;;26.03;25.78;101373.97;4977011;28;1138;-24
2022/12/01 01:27:04;;;;;;;;;;;;;;;25.82;26.50;101378.88;4977400;28;1114;-24
2022/12/01 01:29:30;;;;;;;;;;;;;;;25.99;26.15;101379.84;4976812;28;1239;-26
2022/12/01 01:31:56;;;;;;;;;;;;;;;26.02;25.65;101372.28;4976829;28;1037;-29
2022/12/01 01:34:22;;;;;;;;;;;;;;;25.99;25.84;101367.19;4977023;28;1178;-25
2022/12/01 01:36:47;;;;;;;;;;;;;;;25.80;26.49;101368.25;4985338;28;1981;-28
2022/12/01 01:39:12;;;;;;;;;;;;;;;25.95;25.98;101367.66;4981633;28;1184;-29
2022/12/01 01:41:38;;;;;;;;;;;;;;;25.95;25.88;101359.56;4976745;28;1165;-27
2022/12/01 01:44:03;;;;;;;;;;;;;;;26.00;25.85;101376.13;4976723;28;1023;-24
2022/12/01 01:46:32;;;;;;;;;;;;;;;25.80;26.20;101373.66;4977159;28;1158;-23
2022/12/01 01:49:07;;;;;;;;;;;;;;;25.99;26.33;101372.56;4976524;28;1236;-25
2022/12/01 01:51:39;;;;;;;;;;;;;;;26.17;26.20;101371.66;4959087;28;1178;-25
2022/12/01 01:54:08;;;;;;;;;;;;;;;25.85;26.36;101379.41;4980044;28;1209;-24
2022/12/01 01:56:34;;;;;;;;;;;;;;;25.79;26.37;101380.88;4980213;28;1199;-25
2022/12/01 01:58:59;;;;;;;;;;;;;;;26.01;25.68;101378.66;4962338;28;1410;-23
2022/12/01 02:01:24;;;;;;;;;;;;;;;26.02;25.71;101371.41;4963343;28;1165;-25
2022/12/01 02:03:50;;;;;;;;;;;;;;;26.04;25.88;101369.41;4979962;28;1158;-27
2022/12/01 02:06:15;;;;;;;;;;;;;;;25.80;26.34;101357.47;4963097;28;1181;-26
2022/12/01 02:08:40;;;;;;;;;;;;;;;25.95;25.95;101364.97;4962047;28;1186;-25
2022/12/01 02:11:15;;;;;;;;;;;;;;;25.97;26.24;101358.44;4979618;28;1197;-24
2022/12/01 02:13:40;;;;;;;;;;;;;;;25.96;25.94;101355.91;4979669;28;1189;-24
2022/12/01 02:16:08;;;;;;;;;;;;;;;25.82;26.48;101354.63;4980086;28;1169;-28
2022/12/01 02:18:41;;;;;;;;;;;;;;;25.96;25.99;101359.41;4979480;28;1898;-25
2022/12/01 02:21:24;;;;;;;;;;;;;;;25.96;26.02;101364.81;4963633;28;1390;-24
2022/12/01 02:24:08;;;;;;;;;;;;;;;25.97;26.32;101357.56;4962239;28;1174;-25
2022/12/01 02:26:48;;;;;;;;;;;;;;;25.81;26.52;101359.16;4968549;28;1102;-26
2022/12/01 02:29:16;;;;;;;;;;;;;;;25.87;25.94;101355.00;4978355;28;1244;-28
2022/12/01 02:32:05;;;;;;;;;;;;;;;26.15;25.58;101338.63;4979204;28;1174;-25
2022/12/01 02:34:50;;;;;;;;;;;;;;;25.84;26.35;101342.66;4932305;28;1267;-25
2022/12/01 02:37:23;;;;;;;;;;;;;;;25.97;26.08;101338.72;4978656;28;1902;-25
2022/12/01 02:39:54;;;;;;;;;;;;;;;26.00;25.75;101327.59;4979672;28;1138;-25
2022/12/01 02:45:04;;;;;;;;;;;;;;;25.85;26.07;101324.66;4977275;28;991;-24
2022/12/01 02:47:30;;;;;;;;;;;;;;;26.06;25.71;101315.34;4962559;28;1141;-24
2022/12/01 02:49:55;;;;;;;;;;;;;;;26.06;26.06;101320.72;4979252;28;1169;-25
2022/12/01 02:52:20;;;;;;;;;;;;;;;25.93;25.97;101324.69;4972090;28;1150;-27
2022/12/01 02:54:46;;;;;;;;;;;;;;;25.80;26.16;101334.09;4965239;28;1170;-27
2022/12/01 02:57:11;;;;;;;;;;;;;;;25.95;26.16;101329.94;4977302;28;1973;-25
2022/12/01 02:59:37;;;;;;;;;;;;;;;25.93;25.99;101324.69;4978899;28;1240;-25
2022/12/01 03:02:05;;;;;;;;;;;;;;;25.88;26.30;101316.25;4978849;28;1249;-24
2022/12/01 03:04:37;;;;;;;;;;;;;;;25.79;26.11;101324.28;4978355;28;1173;-24
2022/12/01 03:07:02;;;;;;;;;;;;;;;25.97;25.75;101312.59;4961229;28;1134;-24
2022/12/01 03:09:46;;;;;;;;;;;;;;;25.97;25.94;101312.59;4978940;28;1169;-27
2022/12/01 03:12:27;;;;;;;;;;;;;;;25.78;26.17;101322.63;4978409;28;1173;-24
2022/12/01 03:14:55;;;;;;;;;;;;;;;25.82;25.91;101311.50;4978390;28;1098;-24
2022/12/01 03:17:22;;;;;;;;;;;;;;;25.91;25.86;101318.63;4978730;28;1906;-24
2022/12/01 03:19:49;;;;;;;;;;;;;;;26.09;25.73;101304.22;4978353;28;1220;-24
2022/12/01 03:22:23;;;;;;;;;;;;;;;25.82;26.34;101312.38;4961022;28;1138;-25
2022/12/01 03:24:49;;;;;;;;;;;;;;;25.96;26.12;101316.28;4961524;28;1181;-25
2022/12/01 03:27:14;;;;;;;;;;;;;;;26.00;25.73;101314.13;4961095;28;1119;-24
2022/12/01 03:29:42;;;;;;;;;;;;;;;25.98;25.85;101311.59;4964990;28;1154;-25
2022/12/01 03:32:08;;;;;;;;;;;;;;;25.75;26.14;101311.31;4960976;28;1198;-24
2022/12/01 03:34:35;;;;;;;;;;;;;;;25.88;26.30;101313.56;4961167;28;1237;-25
2022/12/01 03:37:03;;;;;;;;;;;;;;;25.90;25.92;101317.78;4978413;28;1906;-26
2022/12/01 03:39:32;;;;;;;;;;;;;;;26.09;25.67;101325.78;4978042;28;1130;-26
2022/12/01 03:42:06;;;;;;;;;;;;;;;25.75;26.26;101317.53;4978379;28;1157;-25
2022/12/01 03:44:33;;;;;;;;;;;;;;;25.87;26.11;101323.50;4960421;28;1150;-25
2022/12/01 03:47:05;;;;;;;;;;;;;;;25.94;25.82;101337.19;4961248;28;1248;-24
2022/12/01 03:49:30;;;;;;;;;;;;;;;25.86;25.75;101346.06;4960842;28;1197;-25
2022/12/01 03:52:09;;;;;;;;;;;;;;;25.73;26.27;101349.19;4960718;28;1118;-26
2022/12/01 03:54:44;;;;;;;;;;;;;;;25.90;26.08;101362.75;4960561;28;1500;-27
2022/12/01 03:57:09;;;;;;;;;;;;;;;25.91;26.05;101362.59;4977609;28;1952;-24
2022/12/01 03:59:35;;;;;;;;;;;;;;;25.88;25.88;101362.91;4960346;28;1010;-24
2022/12/01 04:02:00;;;;;;;;;;;;;;;25.78;26.52;101371.13;4960288;28;1206;-30
2022/12/01 04:04:25;;;;;;;;;;;;;;;25.72;21.94;101371.75;4959707;28;1608;-24
2022/12/01 04:06:51;;;;;;;;;;;;;;;24.25;22.30;101369.09;4977939;28;1149;-28
2022/12/01 04:09:16;;;;;;;;;;;;;;;23.64;22.04;101375.63;4960233;28;937;-27
2022/12/01 04:14:25;;;;;;;;;;;;;;;22.58;22.83;101375.25;4964781;28;996;-29
2022/12/01 04:16:51;;;;;;;;;;;;;;;21.81;23.48;101366.72;4977478;28;1954;-26
2022/12/01 04:19:16;;;;;;;;;;;;;;;22.02;23.01;101377.44;4977503;28;1220;-29
2022/12/01 04:21:41;;;;;;;;;;;;;;;21.51;23.52;101375.38;4977522;28;908;-26
2022/12/01 04:24:07;;;;;;;;;;;;;;;22.82;23.22;101378.56;4977127;28;1298;-27
2022/12/01 04:26:33;;;;;;;;;;;;;;;23.34;21.55;101378.31;4977502;28;1272;-24
2022/12/01 04:28:59;;;;;;;;;;;;;;;21.64;22.82;101377.00;4977366;28;1236;-27
2022/12/01 04:31:24;;;;;;;;;;;;;;;21.07;23.89;101367.41;4977820;28;1165;-28
2022/12/01 04:33:49;;;;;;;;;;;;;;;20.90;23.83;101366.94;4977037;28;943;-25
2022/12/01 04:36:15;;;;;;;;;;;;;;;20.75;24.06;101365.53;4977061;28;1178;-25
2022/12/01 04:38:40;;;;;;;;;;;;;;;20.43;24.15;101376.03;4977634;28;1983;-26
2022/12/01 04:41:09;;;;;;;;;;;;;;;20.22;24.15;101365.22;4977819;28;1228;-24
2022/12/01 04:43:34;;;;;;;;;;;;;;;20.05;24.54;101358.56;4977419;28;1157;-25
2022/12/01 04:45:59;;;;;;;;;;;;;;;19.99;24.78;101350.97;4960702;28;1378;-27
2022/12/01 04:48:25;;;;;;;;;;;;;;;19.92;24.80;101335.44;4967855;28;1075;-24
2022/12/01 04:50:50;;;;;;;;;;;;;;;20.92;24.84;101332.94;4977075;28;1082;-22
2022/12/01 04:53:15;;;;;;;;;;;;;;;21.86;24.00;101335.03;4977179;28;1019;-23
2022/12/01 04:55:40;;;;;;;;;;;;;;;21.98;24.20;101317.03;4976699;28;1019;-23
2022/12/01 04:58:06;;;;;;;;;;;;;;;22.37;24.41;101313.66;4976642;28;1898;-22
2022/12/01 05:00:31;;;;;;;;;;;;;;;22.92;24.36;101316.88;4974828;28;2425;-23
2022/12/01 05:02:57;;;;;;;;;;;;;;;22.76;24.85;101318.28;4976855;28;2040;-22
2022/12/01 05:05:22;;;;;;;;;;;;;;;23.51;23.46;101319.53;4976756;28;2058;-23
2022/12/01 05:07:48;;;;;;;;;;;;;;;24.14;23.13;101313.69;4976613;28;1971;-26
2022/12/01 05:10:13;;;;;;;;;;;;;;;24.46;22.72;101324.00;4975296;28;1853;-25
2022/12/01 05:12:40;;;;;;;;;;;;;;;24.89;22.28;101320.72;4967029;28;1982;-25
2022/12/01 05:15:06;;;;;;;;;;;;;;;25.07;22.44;101322.59;4976257;28;1824;-24
2022/12/01 05:17:31;;;;;;;;;;;;;;;25.27;22.51;101327.81;4976751;28;1910;-25
2022/12/01 05:22:40;;;;;;;;;;;;;;;23.87;24.33;101323.41;4975245;28;952;-23
2022/12/01 05:25:07;;;;;;;;;;;;;;;23.97;24.27;101318.84;4976347;28;1163;-26
2022/12/01 05:27:32;;;;;;;;;;;;;;;23.83;24.47;101307.56;4977331;28;1188;-23
2022/12/01 05:29:57;;;;;;;;;;;;;;;24.09;24.16;101319.47;4980847;28;1212;-23
2022/12/01 05:32:22;;;;;;;;;;;;;;;24.94;23.09;101320.31;4980030;28;1133;-24
2022/12/01 05:34:48;;;;;;;;;;;;;;;25.05;23.05;101320.06;4980173;28;1146;-25
2022/12/01 05:37:13;;;;;;;;;;;;;;;24.29;23.99;101331.00;4980512;28;1965;-23
2022/12/01 05:39:39;;;;;;;;;;;;;;;24.03;24.54;101326.31;4980295;28;1106;-26
2022/12/01 05:42:04;;;;;;;;;;;;;;;24.85;23.57;101332.78;4980282;28;1114;-25
2022/12/01 05:44:29;;;;;;;;;;;;;;;25.15;23.11;101333.44;4979799;28;2518;-23
2022/12/01 05:46:55;;;;;;;;;;;;;;;24.35;24.26;101343.03;4980212;28;1090;-25
2022/12/01 05:49:20;;;;;;;;;;;;;;;24.26;24.42;101346.59;4980218;28;1130;-23
2022/12/01 05:51:45;;;;;;;;;;;;;;;25.07;23.40;101355.72;4966285;28;1028;-23
2022/12/01 05:54:11;;;;;;;;;;;;;;;25.48;22.95;101362.47;4979984;28;1286;-24
2022/12/01 05:56:36;;;;;;;;;;;;;;;25.72;22.59;101368.22;4979942;28;1114;-25
2022/12/01 05:59:01;;;;;;;;;;;;;;;26.03;22.39;101373.97;4979846;28;1906;-28
2022/12/01 06:01:26;;;;;;;;;;;;;;;26.00;22.64;101376.97;4980134;28;1153;-25
2022/12/01 06:03:52;;;;;;;;;;;;;;;26.20;22.54;101379.44;4980188;28;1200;-23
2022/12/01 06:06:17;;;;;;;;;;;;;;;26.39;22.03;101377.53;4993232;28;1109;-29
2022/12/01 06:08:43;;;;;;;;;;;;;;;26.64;21.62;101373.03;4979050;28;1082;-23
2022/12/01 06:11:08;;;;;;;;;;;;;;;26.87;21.69;101376.97;4979703;28;1173;-24
2022/12/01 06:13:33;;;;;;;;;;;;;;;27.08;21.71;101375.66;4980058;28;1150;-25
2022/12/01 06:15:59;;;;;;;;;;;;;;;27.26;21.47;101362.84;4979504;28;2397;-23
2022/12/01 06:18:25;;;;;;;;;;;;;;;26.36;22.26;101353.56;4979706;28;1977;-25
2022/12/01 06:20:50;;;;;;;;;;;;;;;25.63;23.03;101359.22;4979326;28;1209;-24
2022/12/01 06:23:15;;;;;;;;;;;;;;;26.37;22.79;101358.81;4979405;28;1201;-24
2022/12/01 06:25:41;;;;;;;;;;;;;;;25.79;23.01;101350.41;4980599;28;1106;-25
2022/12/01 06:28:06;;;;;;;;;;;;;;;25.39;23.63;101350.78;4974279;28;1192;-22
2022/12/01 06:30:31;;;;;;;;;;;;;;;26.26;22.87;101348.25;4978718;28;1082;-25
2022/12/01 06:32:57;;;;;;;;;;;;;;;26.63;22.59;101352.47;4978873;28;1253;-24
2022/12/01 06:35:22;;;;;;;;;;;;;;;26.78;22.00;101343.72;4979026;28;1241;-24
2022/12/01 06:37:47;;;;;;;;;;;;;;;27.10;21.89;101338.53;4979276;28;2009;-25
2022/12/01 06:40:13;;;;;;;;;;;;;;;27.08;22.31;101346.81;4977882;28;1161;-26
2022/12/01 06:42:38;;;;;;;;;;;;;;;26.20;23.21;101354.31;4979086;28;1150;-24
2022/12/01 06:45:04;;;;;;;;;;;;;;;25.83;23.74;101349.06;4979122;28;2585;-24
2022/12/01 06:47:29;;;;;;;;;;;;;;;26.42;23.73;101344.81;4979002;28;1197;-23
2022/12/01 06:49:54;;;;;;;;;;;;;;;26.85;23.30;101352.00;4978723;28;1114;-24
2022/12/01 06:52:20;;;;;;;;;;;;;;;27.04;22.85;101358.13;4979025;28;1106;-24
2022/12/01 06:54:45;;;;;;;;;;;;;;;26.37;23.09;101345.31;4979172;28;1228;-29
2022/12/01 06:57:10;;;;;;;;;;;;;;;25.78;24.00;101365.72;4978048;28;1886;-25
2022/12/01 06:59:36;;;;;;;;;;;;;;;26.20;24.09;101365.94;4981122;28;1118;-25
2022/12/01 07:02:01;;;;;;;;;;;;;;;26.69;23.24;101360.91;4990085;28;1136;-27
2022/12/01 07:04:27;;;;;;;;;;;;;;;26.98;23.06;101379.34;4978599;28;1145;-27
2022/12/01 07:06:53;;;;;;;;;;;;;;;27.18;22.88;101370.09;4978486;28;1079;-25
2022/12/01 07:09:18;;;;;;;;;;;;;;;27.32;22.83;101374.84;4978376;28;1204;-25
2022/12/01 07:11:43;;;;;;;;;;;;;;;27.33;22.49;101378.38;4978574;28;1114;-29
2022/12/01 07:14:19;;;;;;;;;;;;;;;26.70;23.10;101382.34;4978417;28;2413;-25
2022/12/01 07:16:44;;;;;;;;;;;;;;;26.48;23.81;101372.97;4961424;28;1098;-28
2022/12/01 07:19:10;;;;;;;;;;;;;;;27.17;23.19;101371.97;4975830;28;1977;-25
2022/12/01 07:21:35;;;;;;;;;;;;;;;27.35;22.36;101377.22;4977475;28;1056;-26
2022/12/01 07:24:00;;;;;;;;;;;;;;;26.64;23.42;101373.03;4978014;28;1155;-27
2022/12/01 07:26:25;;;;;;;;;;;;;;;26.78;23.52;101366.16;4967826;28;1209;-23
2022/12/01 07:28:51;;;;;;;;;;;;;;;27.27;22.90;101374.50;4974172;28;893;-23
2022/12/01 07:31:16;;;;;;;;;;;;;;;27.45;22.69;101385.13;4958391;28;1197;-24
2022/12/01 07:33:42;;;;;;;;;;;;;;;27.62;22.75;101377.00;4976291;28;996;-24
2022/12/01 07:36:07;;;;;;;;;;;;;;;27.63;22.59;101376.84;4977339;28;1208;-28
2022/12/01 07:38:33;;;;;;;;;;;;;;;27.53;22.64;101372.66;4976792;28;1970;-25
2022/12/01 07:41:05;;;;;;;;;;;;;;;27.19;22.89;101372.66;4977003;28;1095;-25
2022/12/01 07:43:30;;;;;;;;;;;;;;;26.76;23.65;101361.91;4968249;28;1313;-24
2022/12/01 07:45:56;;;;;;;;;;;;;;;27.12;23.29;101367.09;4972797;28;2249;-25
2022/12/01 07:48:21;;;;;;;;;;;;;;;27.72;22.64;101360.63;4976532;28;1173;-25
2022/12/01 07:50:46;;;;;;;;;;;;;;;27.12;23.00;101361.69;4976474;28;1133;-26
2022/12/01 07:53:12;;;;;;;;;;;;;;;26.85;24.19;101355.53;4977530;28;1158;-25
2022/12/01 07:55:37;;;;;;;;;;;;;;;27.55;22.85;101352.53;4977613;28;1114;-26
2022/12/01 07:58:02;;;;;;;;;;;;;;;27.74;22.58;101335.09;4976194;28;1932;-24
2022/12/01 08:00:27;;;;;;;;;;;;;;;27.80;22.81;101343.53;4977178;28;1160;-25
2022/12/01 08:02:53;;;;;;;;;;;;;;;27.99;22.14;101342.31;4977365;28;1130;-25
2022/12/01 08:05:18;;;;;;;;;;;;;;;27.73;22.46;101349.66;4977551;28;1236;-25
2022/12/01 08:07:43;;;;;;;;;;;;;;;27.74;22.22;101345.09;4970506;28;1102;-27
2022/12/01 08:10:09;;;;;;;;;;;;;;;27.10;22.61;101346.66;4970406;28;1126;-25
2022/12/01 08:12:34;;;;;;;;;;;;;;;26.80;23.37;101341.69;4977496;28;1078;-24
2022/12/01 08:14:59;;;;;;;;;;;;;;;27.35;22.83;101349.34;4967714;28;1908;-25
2022/12/01 08:17:25;;;;;;;;;;;;;;;27.61;22.02;101364.53;4974499;28;1961;-24
2022/12/01 08:19:50;;;;;;;;;;;;;;;26.51;21.10;101346.53;4977537;28;1201;-27
2022/12/01 08:22:15;;;;;;;;;;;;;;;26.29;22.79;101353.34;4974465;28;1345;-26
2022/12/01 08:24:41;;;;;;;;;;;;;;;27.01;22.14;101340.34;4974896;28;1199;-27
2022/12/01 08:27:06;;;;;;;;;;;;;;;27.24;21.82;101350.53;4976696;28;1138;-28
2022/12/01 08:29:32;;;;;;;;;;;;;;;27.45;21.42;101355.41;4977136;28;1090;-24
2022/12/01 08:31:58;;;;;;;;;;;;;;;27.70;21.08;101343.75;4975218;28;1160;-25
2022/12/01 08:34:23;;;;;;;;;;;;;;;27.56;21.28;101351.50;4976382;28;1110;-28
2022/12/01 08:36:48;;;;;;;;;;;;;;;27.67;21.59;101346.75;4977074;28;1194;-24
2022/12/01 08:39:14;;;;;;;;;;;;;;;27.01;22.12;101334.94;4976299;28;1970;-24
2022/12/01 08:41:40;;;;;;;;;;;;;;;26.67;22.31;101342.19;4976267;28;1285;-24
2022/12/01 08:44:05;;;;;;;;;;;;;;;27.21;21.92;101349.00;4976371;28;1977;-25
2022/12/01 08:46:32;;;;;;;;;;;;;;;27.00;22.11;101339.53;4974125;28;1273;-28
2022/12/01 08:48:57;;;;;;;;;;;;;;;26.63;22.63;101338.13;4974486;28;1272;-26
2022/12/01 08:51:23;;;;;;;;;;;;;;;27.17;22.65;101325.22;4976421;28;1226;-26
2022/12/01 08:53:48;;;;;;;;;;;;;;;27.46;22.10;101323.84;4975814;28;1268;-26
2022/12/01 08:56:20;;;;;;;;;;;;;;;27.46;22.05;101323.84;4975615;28;1206;-29
2022/12/01 08:58:46;;;;;;;;;;;;;;;27.81;21.88;101346.06;4975887;28;1902;-25
2022/12/01 09:01:12;;;;;;;;;;;;;;;27.65;22.31;101324.47;4976293;28;1268;-25
2022/12/01 09:03:37;;;;;;;;;;;;;;;27.66;22.36;101337.78;4979199;28;1265;-25
2022/12/01 09:06:03;;;;;;;;;;;;;;;26.95;22.55;101335.63;4980216;28;1198;-27
2022/12/01 09:08:31;;;;;;;;;;;;;;;26.68;23.34;101324.13;4979180;28;1268;-23
2022/12/01 09:10:56;;;;;;;;;;;;;;;27.37;22.46;101333.81;4977361;28;1095;-24
2022/12/01 09:13:21;;;;;;;;;;;;;;;27.18;22.39;101330.44;4977336;28;1193;-24
2022/12/01 09:16:05;;;;;;;;;;;;;;;26.75;23.11;101327.84;4969478;28;1947;-23
2022/12/01 09:18:30;;;;;;;;;;;;;;;27.30;23.24;101330.94;4980793;28;1974;-23
2022/12/01 09:20:55;;;;;;;;;;;;;;;27.68;22.64;101327.69;4980151;28;1126;-24
2022/12/01 09:23:21;;;;;;;;;;;;;;;27.71;23.06;101337.34;4979501;28;1082;-29
2022/12/01 09:25:47;;;;;;;;;;;;;;;27.70;22.48;101333.78;4980027;28;1213;-23
2022/12/01 09:28:12;;;;;;;;;;;;;;;26.81;23.34;101335.28;4962203;28;1439;-26
2022/12/01 09:30:37;;;;;;;;;;;;;;;26.97;23.69;101337.16;4979283;28;1185;-25
2022/12/01 09:33:03;;;;;;;;;;;;;;;27.54;23.39;101329.22;4979604;28;1293;-24
2022/12/01 09:35:29;;;;;;;;;;;;;;;27.78;23.15;101321.28;4979232;28;1257;-24
2022/12/01 09:37:54;;;;;;;;;;;;;;;27.82;23.06;101323.44;4979006;28;1918;-23
2022/12/01 09:40:19;;;;;;;;;;;;;;;27.02;23.43;101301.59;4978663;28;1086;-24
2022/12/01 09:42:45;;;;;;;;;;;;;;;26.97;23.95;101314.72;4961527;28;1229;-24
2022/12/01 09:45:19;;;;;;;;;;;;;;;27.43;23.50;101303.41;4978888;28;2497;-24
2022/12/01 09:47:45;;;;;;;;;;;;;;;27.69;22.98;101299.66;4961690;28;906;-23
2022/12/01 09:50:12;;;;;;;;;;;;;;;27.67;22.98;101306.22;4961735;28;1151;-30
2022/12/01 09:52:45;;;;;;;;;;;;;;;26.96;23.38;101294.97;4979644;28;1090;-24
2022/12/01 09:55:11;;;;;;;;;;;;;;;26.56;24.15;101296.63;4962440;28;1198;-25
2022/12/01 09:57:38;;;;;;;;;;;;;;;27.33;23.24;101287.38;4962724;28;1902;-27
2022/12/01 10:00:13;;;;;;;;;;;;;;;27.07;22.83;101287.56;4962090;28;1233;-24
2022/12/01 10:02:58;;;;;;;;;;;;;;;26.56;23.63;101289.38;4979427;28;1193;-24
2022/12/01 10:05:25;;;;;;;;;;;;;;;27.23;23.16;101279.47;4978938;28;1280;-28
2022/12/01 10:07:53;;;;;;;;;;;;;;;27.51;22.81;101279.06;4962204;28;1201;-25
2022/12/01 10:10:39;;;;;;;;;;;;;;;27.52;22.96;101277.22;4978386;28;1129;-25
2022/12/01 10:13:26;;;;;;;;;;;;;;;27.78;22.52;101272.63;4960173;28;1175;-27
2022/12/01 10:15:54;;;;;;;;;;;;;;;27.63;22.77;101278.69;4978957;28;1805;-23
2022/12/01 10:18:27;;;;;;;;;;;;;;;26.90;23.55;101264.09;4979101;28;1984;-27
2022/12/01 10:21:08;;;;;;;;;;;;;;;26.77;23.96;101269.16;4962355;28;1142;-24
2022/12/01 10:23:34;;;;;;;;;;;;;;;27.57;22.83;101253.22;4961433;28;1163;-26
2022/12/01 10:26:13;;;;;;;;;;;;;;;27.23;22.86;101260.56;4978935;28;1430;-25
2022/12/01 10:28:45;;;;;;;;;;;;;;;26.73;23.52;101257.84;4978152;28;1118;-27
2022/12/01 10:31:20;;;;;;;;;;;;;;;27.42;23.27;101253.09;4978397;28;1194;-27
2022/12/01 10:34:03;;;;;;;;;;;;;;;27.60;23.09;101239.34;4961257;28;1261;-24
2022/12/01 10:36:29;;;;;;;;;;;;;;;27.84;22.71;101244.88;4976916;28;1151;-24
2022/12/01 10:38:54;;;;;;;;;;;;;;;27.16;23.37;101251.44;4979185;28;1980;-27
2022/12/01 10:41:19;;;;;;;;;;;;;;;26.54;24.44;101240.16;4978889;28;1070;-28
2022/12/01 10:43:46;;;;;;;;;;;;;;;27.33;23.82;101241.44;4979527;28;1137;-28
2022/12/01 10:46:23;;;;;;;;;;;;;;;27.66;23.16;101234.28;4973369;28;2218;-24
2022/12/01 10:48:52;;;;;;;;;;;;;;;27.69;23.38;101244.75;4978642;28;971;-27
2022/12/01 10:51:19;;;;;;;;;;;;;;;26.82;24.17;101244.34;4978926;28;1078;-25
2022/12/01 10:53:44;;;;;;;;;;;;;;;26.78;24.52;101225.81;4978576;28;1153;-25
2022/12/01 10:56:13;;;;;;;;;;;;;;;27.41;23.72;101216.25;4961394;28;1209;-25
2022/12/01 10:58:42;;;;;;;;;;;;;;;27.62;23.30;101204.91;4978478;28;1898;-27
2022/12/01 11:01:07;;;;;;;;;;;;;;;27.66;23.23;101224.28;4977599;28;1099;-26
2022/12/01 11:03:33;;;;;;;;;;;;;;;26.72;24.28;101220.25;4959166;28;1212;-25
2022/12/01 11:06:00;;;;;;;;;;;;;;;26.79;24.46;101223.97;4977948;28;1118;-31
2022/12/01 11:08:35;;;;;;;;;;;;;;;27.39;24.11;101229.94;4976517;28;1357;-25
2022/12/01 11:11:00;;;;;;;;;;;;;;;27.50;23.93;101238.72;4972739;28;1126;-26
2022/12/01 11:13:29;;;;;;;;;;;;;;;27.57;23.67;101238.84;4976164;28;1059;-29
2022/12/01 11:15:55;;;;;;;;;;;;;;;26.60;24.80;101239.47;4959902;28;2389;-31
2022/12/01 11:18:21;;;;;;;;;;;;;;;26.81;24.78;101239.97;4975897;28;1902;-24
2022/12/01 11:20:47;;;;;;;;;;;;;;;27.38;24.10;101246.34;4958258;28;1320;-25
2022/12/01 11:23:19;;;;;;;;;;;;;;;26.73;24.69;101232.72;4973807;28;1315;-26
2022/12/01 11:25:57;;;;;;;;;;;;;;;26.39;25.09;101221.91;4974121;28;1343;-27
2022/12/01 11:28:22;;;;;;;;;;;;;;;27.26;24.21;101238.59;4976916;28;1213;-24
2022/12/01 11:30:53;;;;;;;;;;;;;;;27.36;23.94;101234.88;4977375;28;1268;-25
2022/12/01 11:33:18;;;;;;;;;;;;;;;27.53;23.78;101235.66;4977013;28;1276;-30
2022/12/01 11:35:45;;;;;;;;;;;;;;;27.79;23.76;101240.00;4976654;28;1280;-23
2022/12/01 11:38:14;;;;;;;;;;;;;;;27.62;24.04;101250.84;4959018;28;1906;-26
2022/12/01 11:40:45;;;;;;;;;;;;;;;26.94;24.57;101242.16;4959742;28;1236;-23
2022/12/01 11:43:13;;;;;;;;;;;;;;;26.58;25.14;101237.94;4959524;28;1352;-23
2022/12/01 11:45:39;;;;;;;;;;;;;;;27.37;24.53;101245.50;4961704;28;1900;-24
2022/12/01 11:48:07;;;;;;;;;;;;;;;27.54;23.97;101248.16;4975114;28;1253;-25
2022/12/01 11:50:33;;;;;;;;;;;;;;;26.62;25.31;101242.84;4976141;28;1308;-25
2022/12/01 11:52:59;;;;;;;;;;;;;;;26.12;25.99;101234.66;4975476;28;1280;-24
2022/12/01 11:55:25;;;;;;;;;;;;;;;27.06;24.68;101240.00;4976027;28;1311;-24
2022/12/01 11:57:51;;;;;;;;;;;;;;;27.33;24.18;101233.34;4976650;28;1898;-23
2022/12/01 12:00:18;;;;;;;;;;;;;;;27.45;24.47;101241.94;4958247;28;1225;-24
2022/12/01 12:02:58;;;;;;;;;;;;;;;26.77;24.74;101226.84;4977613;28;1311;-26
2022/12/01 12:05:39;;;;;;;;;;;;;;;26.24;25.31;101237.03;4977049;28;1296;-23
2022/12/01 12:08:08;;;;;;;;;;;;;;;27.12;24.73;101240.16;4976450;28;1280;-23
2022/12/01 12:10:42;;;;;;;;;;;;;;;27.47;24.20;101249.88;4976048;28;1284;-23
2022/12/01 12:13:10;;;;;;;;;;;;;;;27.08;24.15;101238.81;4974172;28;1257;-23
2022/12/01 12:15:48;;;;;;;;;;;;;;;26.34;25.48;101245.81;4976728;28;1789;-24
2022/12/01 12:18:16;;;;;;;;;;;;;;;26.84;25.24;101247.75;4975281;28;1969;-25
2022/12/01 12:20:44;;;;;;;;;;;;;;;27.19;24.48;101253.81;4975617;28;1162;-25
2022/12/01 12:23:13;;;;;;;;;;;;;;;27.27;24.43;101261.06;4959271;28;1280;-25
2022/12/01 12:25:38;;;;;;;;;;;;;;;26.52;25.25;101255.66;4975775;28;1260;-23
2022/12/01 12:28:03;;;;;;;;;;;;;;;25.79;26.20;101258.78;4976617;28;1280;-23
2022/12/01 12:30:29;;;;;;;;;;;;;;;26.48;25.69;101260.53;4975477;28;1344;-23
2022/12/01 12:33:07;;;;;;;;;;;;;;;26.96;24.81;101267.16;4958501;28;1364;-24
2022/12/01 12:35:38;;;;;;;;;;;;;;;27.00;24.94;101255.84;4958949;28;1245;-26
2022/12/01 12:38:22;;;;;;;;;;;;;;;26.18;25.58;101254.69;4957529;28;1906;-24
2022/12/01 12:40:50;;;;;;;;;;;;;;;25.64;26.47;101253.97;4975603;28;1257;-25
2022/12/01 12:43:32;;;;;;;;;;;;;;;26.63;25.36;101258.03;4976759;28;1343;-25
2022/12/01 12:46:02;;;;;;;;;;;;;;;27.06;24.61;101248.09;4974469;28;1747;-27
2022/12/01 12:48:27;;;;;;;;;;;;;;;26.72;24.70;101231.88;4959002;28;1229;-24
2022/12/01 12:51:08;;;;;;;;;;;;;;;25.99;25.63;101234.25;4976428;28;1398;-23
2022/12/01 12:53:39;;;;;;;;;;;;;;;26.36;25.65;101232.19;4976748;28;1296;-25
2022/12/01 12:56:04;;;;;;;;;;;;;;;26.38;25.32;101220.22;4959240;28;1312;-24
2022/12/01 12:58:30;;;;;;;;;;;;;;;25.91;26.06;101229.66;4958880;28;1977;-25
2022/12/01 13:01:15;;;;;;;;;;;;;;;26.40;25.73;101217.34;4974747;28;1359;-27